sensor_id;sensor_type;location;lat;lon;timestamp;P1;durP1;ratioP1;P2;durP2;ratioP2
3561;SDS011;1795;52.074;4.754;2022-12-07T00:01:17;7.80;;;3.20;;
3561;SDS011;1795;52.074;4.754;2022-12-07T00:03:47;4.78;;;3.10;;
3561;SDS011;1795;52.074;4.754;2022-12-07T00:06:17;6.15;;;3.63;;
3561;SDS011;1795;52.074;4.754;2022-12-07T00:08:46;5.47;;;2.90;;
3561;SDS011;1795;52.074;4.754;2022-12-07T00:11:15;7.28;;;3.78;;
3561;SDS011;1795;52.074;4.754;2022-12-07T00:13:46;6.90;;;3.53;;
3561;SDS011;1795;52.074;4.754;2022-12-07T00:16:18;5.35;;;3.50;;
3561;SDS011;1795;52.074;4.754;2022-12-07T00:18:47;6.00;;;2.90;;
3561;SDS011;1795;52.074;4.754;2022-12-07T00:21:16;5.53;;;3.43;;
3561;SDS011;1795;52.074;4.754;2022-12-07T00:23:46;7.43;;;3.17;;
3561;SDS011;1795;52.074;4.754;2022-12-07T00:26:16;6.60;;;3.80;;
3561;SDS011;1795;52.074;4.754;2022-12-07T00:28:47;4.30;;;2.92;;
3561;SDS011;1795;52.074;4.754;2022-12-07T00:31:16;5.20;;;3.20;;
3561;SDS011;1795;52.074;4.754;2022-12-07T00:33:46;4.10;;;3.50;;
3561;SDS011;1795;52.074;4.754;2022-12-07T00:36:16;4.32;;;2.60;;
3561;SDS011;1795;52.074;4.754;2022-12-07T00:38:52;4.63;;;3.00;;
3561;SDS011;1795;52.074;4.754;2022-12-07T00:41:21;5.85;;;3.00;;
3561;SDS011;1795;52.074;4.754;2022-12-07T00:43:51;5.70;;;3.10;;
3561;SDS011;1795;52.074;4.754;2022-12-07T00:46:19;4.63;;;2.70;;
3561;SDS011;1795;52.074;4.754;2022-12-07T00:48:48;6.50;;;2.67;;
3561;SDS011;1795;52.074;4.754;2022-12-07T00:51:17;4.10;;;2.63;;
3561;SDS011;1795;52.074;4.754;2022-12-07T00:53:46;3.50;;;2.80;;
3561;SDS011;1795;52.074;4.754;2022-12-07T00:56:15;3.85;;;2.80;;
3561;SDS011;1795;52.074;4.754;2022-12-07T00:58:50;2.90;;;2.50;;
3561;SDS011;1795;52.074;4.754;2022-12-07T01:01:20;4.35;;;2.60;;
3561;SDS011;1795;52.074;4.754;2022-12-07T01:03:48;4.40;;;2.80;;
3561;SDS011;1795;52.074;4.754;2022-12-07T01:06:16;5.40;;;3.10;;
3561;SDS011;1795;52.074;4.754;2022-12-07T01:08:45;4.50;;;2.78;;
3561;SDS011;1795;52.074;4.754;2022-12-07T01:11:15;4.00;;;2.53;;
3561;SDS011;1795;52.074;4.754;2022-12-07T01:13:44;4.13;;;2.78;;
3561;SDS011;1795;52.074;4.754;2022-12-07T01:16:14;6.70;;;2.60;;
3561;SDS011;1795;52.074;4.754;2022-12-07T01:18:45;4.20;;;2.05;;
3561;SDS011;1795;52.074;4.754;2022-12-07T01:21:15;3.80;;;2.20;;
3561;SDS011;1795;52.074;4.754;2022-12-07T01:23:45;4.68;;;1.90;;
3561;SDS011;1795;52.074;4.754;2022-12-07T01:26:14;5.90;;;2.40;;
3561;SDS011;1795;52.074;4.754;2022-12-07T01:28:43;5.03;;;2.25;;
3561;SDS011;1795;52.074;4.754;2022-12-07T01:31:12;6.33;;;2.10;;
3561;SDS011;1795;52.074;4.754;2022-12-07T01:33:43;5.60;;;2.28;;
3561;SDS011;1795;52.074;4.754;2022-12-07T01:36:14;3.45;;;2.28;;
3561;SDS011;1795;52.074;4.754;2022-12-07T01:38:43;5.45;;;2.10;;
3561;SDS011;1795;52.074;4.754;2022-12-07T01:41:13;5.40;;;2.30;;
3561;SDS011;1795;52.074;4.754;2022-12-07T01:46:44;4.05;;;2.10;;
3561;SDS011;1795;52.074;4.754;2022-12-07T01:49:16;1.90;;;1.80;;
3561;SDS011;1795;52.074;4.754;2022-12-07T01:51:48;4.47;;;1.70;;
3561;SDS011;1795;52.074;4.754;2022-12-07T01:54:18;2.97;;;1.80;;
3561;SDS011;1795;52.074;4.754;2022-12-07T01:56:49;4.00;;;1.70;;
3561;SDS011;1795;52.074;4.754;2022-12-07T01:59:19;4.38;;;1.88;;
3561;SDS011;1795;52.074;4.754;2022-12-07T02:01:52;3.10;;;1.87;;
3561;SDS011;1795;52.074;4.754;2022-12-07T02:04:21;1.70;;;1.33;;
3561;SDS011;1795;52.074;4.754;2022-12-07T02:06:50;3.22;;;1.70;;
3561;SDS011;1795;52.074;4.754;2022-12-07T02:09:18;4.82;;;1.90;;
3561;SDS011;1795;52.074;4.754;2022-12-07T02:11:46;3.45;;;1.40;;
3561;SDS011;1795;52.074;4.754;2022-12-07T02:14:14;5.80;;;1.63;;
3561;SDS011;1795;52.074;4.754;2022-12-07T02:16:46;3.65;;;1.40;;
3561;SDS011;1795;52.074;4.754;2022-12-07T02:19:26;6.85;;;1.60;;
3561;SDS011;1795;52.074;4.754;2022-12-07T02:22:22;4.50;;;1.55;;
3561;SDS011;1795;52.074;4.754;2022-12-07T02:25:04;1.83;;;1.30;;
3561;SDS011;1795;52.074;4.754;2022-12-07T02:27:40;3.50;;;2.30;;
3561;SDS011;1795;52.074;4.754;2022-12-07T02:30:14;4.47;;;2.10;;
3561;SDS011;1795;52.074;4.754;2022-12-07T02:32:48;2.90;;;1.40;;
3561;SDS011;1795;52.074;4.754;2022-12-07T02:35:22;3.78;;;1.80;;
3561;SDS011;1795;52.074;4.754;2022-12-07T02:37:58;2.17;;;1.43;;
3561;SDS011;1795;52.074;4.754;2022-12-07T02:40:33;6.05;;;1.83;;
3561;SDS011;1795;52.074;4.754;2022-12-07T02:43:06;3.20;;;1.60;;
3561;SDS011;1795;52.074;4.754;2022-12-07T02:45:40;5.47;;;1.42;;
3561;SDS011;1795;52.074;4.754;2022-12-07T02:48:12;3.28;;;1.45;;
3561;SDS011;1795;52.074;4.754;2022-12-07T02:50:44;1.60;;;1.20;;
3561;SDS011;1795;52.074;4.754;2022-12-07T02:53:28;4.80;;;1.30;;
3561;SDS011;1795;52.074;4.754;2022-12-07T02:55:59;5.10;;;1.20;;
3561;SDS011;1795;52.074;4.754;2022-12-07T02:58:32;2.00;;;0.90;;
3561;SDS011;1795;52.074;4.754;2022-12-07T03:01:11;2.23;;;1.30;;
3561;SDS011;1795;52.074;4.754;2022-12-07T03:03:47;2.50;;;1.00;;
3561;SDS011;1795;52.074;4.754;2022-12-07T03:06:20;5.53;;;1.07;;
3561;SDS011;1795;52.074;4.754;2022-12-07T03:08:57;2.72;;;1.10;;
3561;SDS011;1795;52.074;4.754;2022-12-07T03:11:36;1.60;;;1.20;;
3561;SDS011;1795;52.074;4.754;2022-12-07T03:14:12;2.80;;;1.40;;
3561;SDS011;1795;52.074;4.754;2022-12-07T03:16:46;2.65;;;1.30;;
3561;SDS011;1795;52.074;4.754;2022-12-07T03:19:20;6.18;;;1.17;;
3561;SDS011;1795;52.074;4.754;2022-12-07T03:21:52;4.05;;;1.35;;
3561;SDS011;1795;52.074;4.754;2022-12-07T03:24:26;2.58;;;1.20;;
3561;SDS011;1795;52.074;4.754;2022-12-07T03:26:58;5.85;;;1.23;;
3561;SDS011;1795;52.074;4.754;2022-12-07T03:29:34;6.07;;;1.80;;
3561;SDS011;1795;52.074;4.754;2022-12-07T03:32:06;2.72;;;1.00;;
3561;SDS011;1795;52.074;4.754;2022-12-07T03:34:42;4.22;;;1.63;;
3561;SDS011;1795;52.074;4.754;2022-12-07T03:37:15;6.32;;;1.60;;
3561;SDS011;1795;52.074;4.754;2022-12-07T03:39:49;4.70;;;1.30;;
3561;SDS011;1795;52.074;4.754;2022-12-07T03:42:24;4.75;;;1.00;;
3561;SDS011;1795;52.074;4.754;2022-12-07T03:44:52;4.93;;;1.70;;
3561;SDS011;1795;52.074;4.754;2022-12-07T03:47:24;5.72;;;1.27;;
3561;SDS011;1795;52.074;4.754;2022-12-07T03:49:58;5.07;;;1.10;;
3561;SDS011;1795;52.074;4.754;2022-12-07T03:52:31;4.70;;;1.40;;
3561;SDS011;1795;52.074;4.754;2022-12-07T03:55:05;3.00;;;1.10;;
3561;SDS011;1795;52.074;4.754;2022-12-07T03:57:36;3.60;;;1.20;;
3561;SDS011;1795;52.074;4.754;2022-12-07T04:00:07;2.40;;;1.10;;
3561;SDS011;1795;52.074;4.754;2022-12-07T04:02:38;3.17;;;1.10;;
3561;SDS011;1795;52.074;4.754;2022-12-07T04:05:07;2.90;;;1.30;;
3561;SDS011;1795;52.074;4.754;2022-12-07T04:07:36;3.40;;;1.20;;
3561;SDS011;1795;52.074;4.754;2022-12-07T04:10:04;1.23;;;1.05;;
3561;SDS011;1795;52.074;4.754;2022-12-07T04:12:33;3.13;;;1.20;;
3561;SDS011;1795;52.074;4.754;2022-12-07T04:15:01;4.50;;;1.45;;
3561;SDS011;1795;52.074;4.754;2022-12-07T04:17:29;2.65;;;1.50;;
3561;SDS011;1795;52.074;4.754;2022-12-07T04:19:59;1.55;;;1.10;;
3561;SDS011;1795;52.074;4.754;2022-12-07T04:22:27;1.20;;;1.10;;
3561;SDS011;1795;52.074;4.754;2022-12-07T04:24:55;3.67;;;1.13;;
3561;SDS011;1795;52.074;4.754;2022-12-07T04:27:23;1.92;;;1.20;;
3561;SDS011;1795;52.074;4.754;2022-12-07T04:29:51;1.65;;;1.15;;
3561;SDS011;1795;52.074;4.754;2022-12-07T04:32:19;3.53;;;0.98;;
3561;SDS011;1795;52.074;4.754;2022-12-07T04:34:47;4.03;;;1.30;;
3561;SDS011;1795;52.074;4.754;2022-12-07T04:37:22;4.20;;;1.00;;
3561;SDS011;1795;52.074;4.754;2022-12-07T04:39:50;3.92;;;1.27;;
3561;SDS011;1795;52.074;4.754;2022-12-07T04:42:18;2.03;;;1.00;;
3561;SDS011;1795;52.074;4.754;2022-12-07T04:44:46;3.65;;;1.30;;
3561;SDS011;1795;52.074;4.754;2022-12-07T04:47:14;4.20;;;1.20;;
3561;SDS011;1795;52.074;4.754;2022-12-07T04:49:42;2.37;;;1.10;;
3561;SDS011;1795;52.074;4.754;2022-12-07T04:52:10;3.70;;;1.20;;
3561;SDS011;1795;52.074;4.754;2022-12-07T04:54:40;3.72;;;1.00;;
3561;SDS011;1795;52.074;4.754;2022-12-07T04:57:08;4.13;;;1.30;;
3561;SDS011;1795;52.074;4.754;2022-12-07T04:59:36;6.38;;;1.38;;
3561;SDS011;1795;52.074;4.754;2022-12-07T05:02:10;4.10;;;1.20;;
3561;SDS011;1795;52.074;4.754;2022-12-07T05:04:38;6.30;;;1.40;;
3561;SDS011;1795;52.074;4.754;2022-12-07T05:07:06;3.10;;;1.10;;
3561;SDS011;1795;52.074;4.754;2022-12-07T05:09:34;7.30;;;1.30;;
3561;SDS011;1795;52.074;4.754;2022-12-07T05:12:04;3.13;;;1.20;;
3561;SDS011;1795;52.074;4.754;2022-12-07T05:14:32;4.78;;;1.10;;
3561;SDS011;1795;52.074;4.754;2022-12-07T05:17:00;5.60;;;1.35;;
3561;SDS011;1795;52.074;4.754;2022-12-07T05:19:28;5.35;;;1.30;;
3561;SDS011;1795;52.074;4.754;2022-12-07T05:21:56;5.07;;;1.20;;
3561;SDS011;1795;52.074;4.754;2022-12-07T05:24:24;2.45;;;0.90;;
3561;SDS011;1795;52.074;4.754;2022-12-07T05:26:52;3.15;;;1.08;;
3561;SDS011;1795;52.074;4.754;2022-12-07T05:29:21;3.15;;;1.45;;
3561;SDS011;1795;52.074;4.754;2022-12-07T05:31:49;3.33;;;1.00;;
3561;SDS011;1795;52.074;4.754;2022-12-07T05:34:17;1.98;;;0.73;;
3561;SDS011;1795;52.074;4.754;2022-12-07T05:36:45;2.60;;;1.13;;
3561;SDS011;1795;52.074;4.754;2022-12-07T05:39:13;3.00;;;1.58;;
3561;SDS011;1795;52.074;4.754;2022-12-07T05:41:41;3.42;;;1.10;;
3561;SDS011;1795;52.074;4.754;2022-12-07T05:44:28;6.10;;;1.70;;
3561;SDS011;1795;52.074;4.754;2022-12-07T05:46:56;7.88;;;1.80;;
3561;SDS011;1795;52.074;4.754;2022-12-07T05:49:24;12.50;;;1.80;;
3561;SDS011;1795;52.074;4.754;2022-12-07T05:51:52;4.50;;;1.60;;
3561;SDS011;1795;52.074;4.754;2022-12-07T05:54:20;6.28;;;1.40;;
3561;SDS011;1795;52.074;4.754;2022-12-07T05:56:48;4.57;;;1.55;;
3561;SDS011;1795;52.074;4.754;2022-12-07T05:59:16;7.38;;;1.60;;
3561;SDS011;1795;52.074;4.754;2022-12-07T06:01:51;3.78;;;1.45;;
3561;SDS011;1795;52.074;4.754;2022-12-07T06:04:20;7.18;;;1.70;;
3561;SDS011;1795;52.074;4.754;2022-12-07T06:06:49;2.72;;;0.90;;
3561;SDS011;1795;52.074;4.754;2022-12-07T06:09:17;3.08;;;1.33;;
3561;SDS011;1795;52.074;4.754;2022-12-07T06:11:46;3.90;;;1.50;;
3561;SDS011;1795;52.074;4.754;2022-12-07T06:14:32;3.60;;;1.30;;
3561;SDS011;1795;52.074;4.754;2022-12-07T06:17:01;3.83;;;1.10;;
3561;SDS011;1795;52.074;4.754;2022-12-07T06:19:29;2.90;;;1.35;;
3561;SDS011;1795;52.074;4.754;2022-12-07T06:21:58;3.13;;;1.45;;
3561;SDS011;1795;52.074;4.754;2022-12-07T06:24:26;6.28;;;1.42;;
3561;SDS011;1795;52.074;4.754;2022-12-07T06:26:54;4.05;;;1.20;;
3561;SDS011;1795;52.074;4.754;2022-12-07T06:29:22;6.72;;;1.23;;
3561;SDS011;1795;52.074;4.754;2022-12-07T06:31:50;2.20;;;1.17;;
3561;SDS011;1795;52.074;4.754;2022-12-07T06:34:20;2.80;;;1.00;;
3561;SDS011;1795;52.074;4.754;2022-12-07T06:36:49;4.00;;;1.30;;
3561;SDS011;1795;52.074;4.754;2022-12-07T06:39:19;2.70;;;1.15;;
3561;SDS011;1795;52.074;4.754;2022-12-07T06:41:49;4.30;;;1.42;;
3561;SDS011;1795;52.074;4.754;2022-12-07T06:44:19;4.70;;;1.17;;
3561;SDS011;1795;52.074;4.754;2022-12-07T06:46:49;5.05;;;1.70;;
3561;SDS011;1795;52.074;4.754;2022-12-07T06:49:22;4.13;;;1.30;;
3561;SDS011;1795;52.074;4.754;2022-12-07T06:51:50;4.55;;;1.70;;
3561;SDS011;1795;52.074;4.754;2022-12-07T06:54:18;4.53;;;1.90;;
3561;SDS011;1795;52.074;4.754;2022-12-07T06:56:46;4.65;;;1.60;;
3561;SDS011;1795;52.074;4.754;2022-12-07T06:59:14;3.78;;;1.77;;
3561;SDS011;1795;52.074;4.754;2022-12-07T07:01:42;5.05;;;1.70;;
3561;SDS011;1795;52.074;4.754;2022-12-07T07:04:10;2.53;;;1.50;;
3561;SDS011;1795;52.074;4.754;2022-12-07T07:06:40;3.20;;;1.20;;
3561;SDS011;1795;52.074;4.754;2022-12-07T07:09:08;3.90;;;1.50;;
3561;SDS011;1795;52.074;4.754;2022-12-07T07:11:36;4.73;;;1.80;;
3561;SDS011;1795;52.074;4.754;2022-12-07T07:14:04;4.47;;;1.90;;
3561;SDS011;1795;52.074;4.754;2022-12-07T07:16:32;3.92;;;2.08;;
3561;SDS011;1795;52.074;4.754;2022-12-07T07:19:00;5.70;;;1.73;;
3561;SDS011;1795;52.074;4.754;2022-12-07T07:21:28;4.78;;;1.90;;
3561;SDS011;1795;52.074;4.754;2022-12-07T07:23:57;3.78;;;1.70;;
3561;SDS011;1795;52.074;4.754;2022-12-07T07:26:25;6.35;;;1.75;;
3561;SDS011;1795;52.074;4.754;2022-12-07T07:28:53;6.15;;;1.63;;
3561;SDS011;1795;52.074;4.754;2022-12-07T07:31:21;6.60;;;1.90;;
3561;SDS011;1795;52.074;4.754;2022-12-07T07:33:49;6.03;;;1.60;;
3561;SDS011;1795;52.074;4.754;2022-12-07T07:36:18;3.65;;;1.80;;
3561;SDS011;1795;52.074;4.754;2022-12-07T07:38:46;4.85;;;1.70;;
3561;SDS011;1795;52.074;4.754;2022-12-07T07:41:15;3.15;;;1.50;;
3561;SDS011;1795;52.074;4.754;2022-12-07T07:43:43;3.90;;;1.40;;
3561;SDS011;1795;52.074;4.754;2022-12-07T07:46:13;4.50;;;1.80;;
3561;SDS011;1795;52.074;4.754;2022-12-07T07:48:42;3.42;;;1.90;;
3561;SDS011;1795;52.074;4.754;2022-12-07T07:51:10;3.33;;;1.48;;
3561;SDS011;1795;52.074;4.754;2022-12-07T07:53:38;4.95;;;1.90;;
3561;SDS011;1795;52.074;4.754;2022-12-07T07:56:06;6.47;;;1.90;;
3561;SDS011;1795;52.074;4.754;2022-12-07T07:58:36;7.85;;;2.40;;
3561;SDS011;1795;52.074;4.754;2022-12-07T08:01:05;3.75;;;2.00;;
3561;SDS011;1795;52.074;4.754;2022-12-07T08:03:34;3.42;;;1.73;;
3561;SDS011;1795;52.074;4.754;2022-12-07T08:06:02;2.50;;;1.90;;
3561;SDS011;1795;52.074;4.754;2022-12-07T08:08:31;5.30;;;1.90;;
3561;SDS011;1795;52.074;4.754;2022-12-07T08:10:59;5.22;;;1.75;;
3561;SDS011;1795;52.074;4.754;2022-12-07T08:13:27;5.47;;;1.90;;
3561;SDS011;1795;52.074;4.754;2022-12-07T08:15:58;7.37;;;2.10;;
3561;SDS011;1795;52.074;4.754;2022-12-07T08:18:34;4.70;;;2.33;;
3561;SDS011;1795;52.074;4.754;2022-12-07T08:21:02;3.28;;;1.85;;
3561;SDS011;1795;52.074;4.754;2022-12-07T08:23:31;3.92;;;1.55;;
3561;SDS011;1795;52.074;4.754;2022-12-07T08:26:05;3.97;;;2.00;;
3561;SDS011;1795;52.074;4.754;2022-12-07T08:28:34;3.38;;;2.10;;
3561;SDS011;1795;52.074;4.754;2022-12-07T08:31:05;3.35;;;2.08;;
3561;SDS011;1795;52.074;4.754;2022-12-07T08:33:34;3.65;;;2.33;;
3561;SDS011;1795;52.074;4.754;2022-12-07T08:36:04;6.13;;;1.90;;
3561;SDS011;1795;52.074;4.754;2022-12-07T08:38:33;2.63;;;2.00;;
3561;SDS011;1795;52.074;4.754;2022-12-07T08:41:02;4.32;;;1.90;;
3561;SDS011;1795;52.074;4.754;2022-12-07T08:43:30;5.50;;;1.83;;
3561;SDS011;1795;52.074;4.754;2022-12-07T08:46:00;4.43;;;2.00;;
3561;SDS011;1795;52.074;4.754;2022-12-07T08:48:39;2.90;;;1.90;;
3561;SDS011;1795;52.074;4.754;2022-12-07T08:51:11;4.40;;;2.08;;
3561;SDS011;1795;52.074;4.754;2022-12-07T08:53:39;2.90;;;1.98;;
3561;SDS011;1795;52.074;4.754;2022-12-07T08:56:09;3.07;;;1.87;;
3561;SDS011;1795;52.074;4.754;2022-12-07T08:58:38;2.83;;;1.75;;
3561;SDS011;1795;52.074;4.754;2022-12-07T09:01:08;3.27;;;2.20;;
3561;SDS011;1795;52.074;4.754;2022-12-07T09:03:36;3.30;;;2.00;;
3561;SDS011;1795;52.074;4.754;2022-12-07T09:06:04;3.15;;;1.73;;
3561;SDS011;1795;52.074;4.754;2022-12-07T09:08:34;3.47;;;1.90;;
3561;SDS011;1795;52.074;4.754;2022-12-07T09:11:05;2.55;;;1.70;;
3561;SDS011;1795;52.074;4.754;2022-12-07T09:13:34;5.30;;;2.63;;
3561;SDS011;1795;52.074;4.754;2022-12-07T09:16:02;3.70;;;1.80;;
3561;SDS011;1795;52.074;4.754;2022-12-07T09:18:32;5.43;;;2.00;;
3561;SDS011;1795;52.074;4.754;2022-12-07T09:21:00;4.60;;;1.80;;
3561;SDS011;1795;52.074;4.754;2022-12-07T09:23:28;4.43;;;1.45;;
3561;SDS011;1795;52.074;4.754;2022-12-07T09:25:58;4.10;;;1.50;;
3561;SDS011;1795;52.074;4.754;2022-12-07T09:28:32;3.40;;;1.60;;
3561;SDS011;1795;52.074;4.754;2022-12-07T09:31:02;2.33;;;1.88;;
3561;SDS011;1795;52.074;4.754;2022-12-07T09:33:54;3.42;;;1.52;;
3561;SDS011;1795;52.074;4.754;2022-12-07T09:36:22;2.30;;;1.30;;
3561;SDS011;1795;52.074;4.754;2022-12-07T09:38:50;3.78;;;1.50;;
3561;SDS011;1795;52.074;4.754;2022-12-07T09:41:18;5.70;;;1.40;;
3561;SDS011;1795;52.074;4.754;2022-12-07T09:43:48;1.65;;;1.40;;
3561;SDS011;1795;52.074;4.754;2022-12-07T09:46:16;4.53;;;1.70;;
3561;SDS011;1795;52.074;4.754;2022-12-07T09:48:46;3.47;;;1.40;;
3561;SDS011;1795;52.074;4.754;2022-12-07T09:51:18;5.43;;;1.40;;
3561;SDS011;1795;52.074;4.754;2022-12-07T09:53:51;3.10;;;1.70;;
3561;SDS011;1795;52.074;4.754;2022-12-07T09:56:20;4.82;;;1.70;;
3561;SDS011;1795;52.074;4.754;2022-12-07T09:58:49;2.95;;;1.48;;
3561;SDS011;1795;52.074;4.754;2022-12-07T10:01:22;2.17;;;1.70;;
3561;SDS011;1795;52.074;4.754;2022-12-07T10:03:51;2.70;;;1.40;;
3561;SDS011;1795;52.074;4.754;2022-12-07T10:06:22;1.42;;;1.20;;
3561;SDS011;1795;52.074;4.754;2022-12-07T10:08:50;4.30;;;1.37;;
3561;SDS011;1795;52.074;4.754;2022-12-07T10:11:18;2.30;;;1.13;;
3561;SDS011;1795;52.074;4.754;2022-12-07T10:13:47;4.13;;;1.30;;
3561;SDS011;1795;52.074;4.754;2022-12-07T10:16:28;2.60;;;1.37;;
3561;SDS011;1795;52.074;4.754;2022-12-07T10:19:17;2.00;;;1.13;;
3561;SDS011;1795;52.074;4.754;2022-12-07T10:22:00;4.80;;;1.60;;
3561;SDS011;1795;52.074;4.754;2022-12-07T10:24:30;3.45;;;1.20;;
3561;SDS011;1795;52.074;4.754;2022-12-07T10:26:58;5.40;;;1.50;;
3561;SDS011;1795;52.074;4.754;2022-12-07T10:29:28;3.88;;;1.50;;
3561;SDS011;1795;52.074;4.754;2022-12-07T10:31:59;3.28;;;1.40;;
3561;SDS011;1795;52.074;4.754;2022-12-07T10:34:30;4.15;;;1.63;;
3561;SDS011;1795;52.074;4.754;2022-12-07T10:37:13;3.92;;;1.60;;
3561;SDS011;1795;52.074;4.754;2022-12-07T10:39:44;3.10;;;1.70;;
3561;SDS011;1795;52.074;4.754;2022-12-07T10:42:15;4.05;;;1.80;;
3561;SDS011;1795;52.074;4.754;2022-12-07T10:44:45;4.13;;;2.13;;
3561;SDS011;1795;52.074;4.754;2022-12-07T10:47:19;3.47;;;1.70;;
3561;SDS011;1795;52.074;4.754;2022-12-07T10:53:03;3.85;;;1.30;;
3561;SDS011;1795;52.074;4.754;2022-12-07T10:55:56;4.32;;;1.52;;
3561;SDS011;1795;52.074;4.754;2022-12-07T10:58:55;3.97;;;1.50;;
3561;SDS011;1795;52.074;4.754;2022-12-07T11:01:32;3.97;;;1.40;;
3561;SDS011;1795;52.074;4.754;2022-12-07T11:04:15;2.47;;;1.20;;
3561;SDS011;1795;52.074;4.754;2022-12-07T11:06:53;6.85;;;1.60;;
3561;SDS011;1795;52.074;4.754;2022-12-07T11:12:38;6.10;;;1.33;;
3561;SDS011;1795;52.074;4.754;2022-12-07T11:15:26;5.78;;;1.58;;
3561;SDS011;1795;52.074;4.754;2022-12-07T11:18:02;6.32;;;1.67;;
3561;SDS011;1795;52.074;4.754;2022-12-07T11:20:37;3.60;;;1.40;;
3561;SDS011;1795;52.074;4.754;2022-12-07T11:23:18;2.25;;;1.30;;
3561;SDS011;1795;52.074;4.754;2022-12-07T11:25:57;6.20;;;1.50;;
3561;SDS011;1795;52.074;4.754;2022-12-07T11:28:37;6.70;;;1.58;;
3561;SDS011;1795;52.074;4.754;2022-12-07T11:31:15;4.88;;;1.48;;
3561;SDS011;1795;52.074;4.754;2022-12-07T11:33:56;6.20;;;1.87;;
3561;SDS011;1795;52.074;4.754;2022-12-07T11:36:33;5.53;;;1.58;;
3561;SDS011;1795;52.074;4.754;2022-12-07T11:39:08;5.00;;;1.98;;
3561;SDS011;1795;52.074;4.754;2022-12-07T11:41:54;4.53;;;2.00;;
3561;SDS011;1795;52.074;4.754;2022-12-07T11:44:30;4.22;;;1.50;;
3561;SDS011;1795;52.074;4.754;2022-12-07T11:47:02;8.60;;;2.00;;
3561;SDS011;1795;52.074;4.754;2022-12-07T11:49:40;7.47;;;1.70;;
3561;SDS011;1795;52.074;4.754;2022-12-07T11:52:14;6.77;;;2.10;;
3561;SDS011;1795;52.074;4.754;2022-12-07T11:54:50;4.43;;;1.70;;
3561;SDS011;1795;52.074;4.754;2022-12-07T11:57:22;3.63;;;1.50;;
3561;SDS011;1795;52.074;4.754;2022-12-07T11:59:57;4.05;;;2.20;;
3561;SDS011;1795;52.074;4.754;2022-12-07T12:02:31;9.30;;;2.40;;
3561;SDS011;1795;52.074;4.754;2022-12-07T12:05:06;6.05;;;2.00;;
3561;SDS011;1795;52.074;4.754;2022-12-07T12:07:40;3.40;;;1.70;;
3561;SDS011;1795;52.074;4.754;2022-12-07T12:10:36;8.57;;;2.45;;
3561;SDS011;1795;52.074;4.754;2022-12-07T12:16:45;3.92;;;1.73;;
3561;SDS011;1795;52.074;4.754;2022-12-07T12:19:31;7.13;;;1.88;;
3561;SDS011;1795;52.074;4.754;2022-12-07T12:22:04;5.10;;;1.63;;
3561;SDS011;1795;52.074;4.754;2022-12-07T12:24:38;5.22;;;1.40;;
3561;SDS011;1795;52.074;4.754;2022-12-07T12:27:09;3.58;;;1.60;;
3561;SDS011;1795;52.074;4.754;2022-12-07T12:29:50;6.72;;;1.60;;
3561;SDS011;1795;52.074;4.754;2022-12-07T12:32:21;2.45;;;1.60;;
3561;SDS011;1795;52.074;4.754;2022-12-07T12:35:00;5.43;;;1.20;;
3561;SDS011;1795;52.074;4.754;2022-12-07T12:37:43;6.20;;;1.60;;
3561;SDS011;1795;52.074;4.754;2022-12-07T12:40:24;3.88;;;1.20;;
3561;SDS011;1795;52.074;4.754;2022-12-07T12:49:30;6.17;;;1.20;;
3561;SDS011;1795;52.074;4.754;2022-12-07T12:55:17;3.60;;;1.37;;
3561;SDS011;1795;52.074;4.754;2022-12-07T12:57:52;4.43;;;1.58;;
3561;SDS011;1795;52.074;4.754;2022-12-07T13:07:04;6.40;;;1.80;;
3561;SDS011;1795;52.074;4.754;2022-12-07T13:09:37;3.50;;;1.60;;
3561;SDS011;1795;52.074;4.754;2022-12-07T13:12:12;2.63;;;1.30;;
3561;SDS011;1795;52.074;4.754;2022-12-07T13:14:55;5.22;;;1.40;;
3561;SDS011;1795;52.074;4.754;2022-12-07T13:20:45;4.60;;;1.40;;
3561;SDS011;1795;52.074;4.754;2022-12-07T13:23:24;2.92;;;1.70;;
3561;SDS011;1795;52.074;4.754;2022-12-07T13:26:00;5.28;;;1.58;;
3561;SDS011;1795;52.074;4.754;2022-12-07T13:28:33;6.20;;;1.60;;
3561;SDS011;1795;52.074;4.754;2022-12-07T13:31:13;4.90;;;1.10;;
3561;SDS011;1795;52.074;4.754;2022-12-07T13:33:56;2.40;;;1.48;;
3561;SDS011;1795;52.074;4.754;2022-12-07T13:36:25;4.47;;;1.90;;
3561;SDS011;1795;52.074;4.754;2022-12-07T13:38:58;3.30;;;1.30;;
3561;SDS011;1795;52.074;4.754;2022-12-07T13:41:27;4.78;;;1.30;;
3561;SDS011;1795;52.074;4.754;2022-12-07T13:44:00;3.20;;;1.50;;
3561;SDS011;1795;52.074;4.754;2022-12-07T13:46:33;3.05;;;1.30;;
3561;SDS011;1795;52.074;4.754;2022-12-07T13:49:15;2.80;;;1.50;;
3561;SDS011;1795;52.074;4.754;2022-12-07T13:51:45;3.38;;;1.60;;
3561;SDS011;1795;52.074;4.754;2022-12-07T13:54:14;2.60;;;0.90;;
3561;SDS011;1795;52.074;4.754;2022-12-07T13:56:42;3.35;;;1.25;;
3561;SDS011;1795;52.074;4.754;2022-12-07T13:59:16;14.30;;;4.20;;
3561;SDS011;1795;52.074;4.754;2022-12-07T14:01:48;4.40;;;2.60;;
3561;SDS011;1795;52.074;4.754;2022-12-07T14:07:18;4.03;;;2.10;;
3561;SDS011;1795;52.074;4.754;2022-12-07T14:09:55;3.22;;;2.00;;
3561;SDS011;1795;52.074;4.754;2022-12-07T14:12:25;4.30;;;1.90;;
3561;SDS011;1795;52.074;4.754;2022-12-07T14:14:55;6.10;;;2.10;;
3561;SDS011;1795;52.074;4.754;2022-12-07T14:17:25;4.40;;;1.50;;
3561;SDS011;1795;52.074;4.754;2022-12-07T14:19:55;3.50;;;1.50;;
3561;SDS011;1795;52.074;4.754;2022-12-07T14:22:25;9.30;;;1.80;;
3561;SDS011;1795;52.074;4.754;2022-12-07T14:24:59;5.93;;;1.80;;
3561;SDS011;1795;52.074;4.754;2022-12-07T14:27:48;2.78;;;1.20;;
3561;SDS011;1795;52.074;4.754;2022-12-07T14:30:19;4.60;;;1.23;;
3561;SDS011;1795;52.074;4.754;2022-12-07T14:32:50;6.60;;;1.50;;
3561;SDS011;1795;52.074;4.754;2022-12-07T14:35:20;5.05;;;1.70;;
3561;SDS011;1795;52.074;4.754;2022-12-07T14:37:48;3.97;;;1.50;;
3561;SDS011;1795;52.074;4.754;2022-12-07T14:40:17;3.42;;;1.38;;
3561;SDS011;1795;52.074;4.754;2022-12-07T14:42:47;4.37;;;1.40;;
3561;SDS011;1795;52.074;4.754;2022-12-07T14:45:18;3.33;;;1.60;;
3561;SDS011;1795;52.074;4.754;2022-12-07T14:47:49;4.88;;;1.30;;
3561;SDS011;1795;52.074;4.754;2022-12-07T14:50:37;2.83;;;1.10;;
3561;SDS011;1795;52.074;4.754;2022-12-07T14:53:28;5.55;;;1.55;;
3561;SDS011;1795;52.074;4.754;2022-12-07T14:56:00;5.30;;;1.90;;
3561;SDS011;1795;52.074;4.754;2022-12-07T14:58:28;3.13;;;1.20;;
3561;SDS011;1795;52.074;4.754;2022-12-07T15:00:56;3.45;;;1.20;;
3561;SDS011;1795;52.074;4.754;2022-12-07T15:03:26;2.90;;;1.50;;
3561;SDS011;1795;52.074;4.754;2022-12-07T15:05:54;4.32;;;1.40;;
3561;SDS011;1795;52.074;4.754;2022-12-07T15:08:22;3.10;;;1.55;;
3561;SDS011;1795;52.074;4.754;2022-12-07T15:10:50;1.92;;;1.17;;
3561;SDS011;1795;52.074;4.754;2022-12-07T15:13:18;4.20;;;1.23;;
3561;SDS011;1795;52.074;4.754;2022-12-07T15:16:04;1.98;;;1.05;;
3561;SDS011;1795;52.074;4.754;2022-12-07T15:18:37;5.60;;;1.70;;
3561;SDS011;1795;52.074;4.754;2022-12-07T15:21:14;5.28;;;1.80;;
3561;SDS011;1795;52.074;4.754;2022-12-07T15:23:42;2.15;;;1.33;;
3561;SDS011;1795;52.074;4.754;2022-12-07T15:26:10;3.85;;;1.10;;
3561;SDS011;1795;52.074;4.754;2022-12-07T15:28:39;2.58;;;1.30;;
3561;SDS011;1795;52.074;4.754;2022-12-07T15:31:10;3.97;;;1.50;;
3561;SDS011;1795;52.074;4.754;2022-12-07T15:34:00;2.80;;;1.58;;
3561;SDS011;1795;52.074;4.754;2022-12-07T15:36:28;2.00;;;1.15;;
3561;SDS011;1795;52.074;4.754;2022-12-07T15:39:00;6.70;;;1.50;;
3561;SDS011;1795;52.074;4.754;2022-12-07T15:41:44;3.70;;;1.80;;
3561;SDS011;1795;52.074;4.754;2022-12-07T15:44:12;6.45;;;2.05;;
3561;SDS011;1795;52.074;4.754;2022-12-07T15:46:58;5.93;;;2.75;;
3561;SDS011;1795;52.074;4.754;2022-12-07T15:49:27;4.03;;;2.53;;
3561;SDS011;1795;52.074;4.754;2022-12-07T15:51:55;4.33;;;2.43;;
3561;SDS011;1795;52.074;4.754;2022-12-07T15:54:24;4.90;;;2.60;;
3561;SDS011;1795;52.074;4.754;2022-12-07T15:56:53;4.18;;;2.55;;
3561;SDS011;1795;52.074;4.754;2022-12-07T15:59:22;5.20;;;2.45;;
3561;SDS011;1795;52.074;4.754;2022-12-07T16:01:50;3.53;;;2.30;;
3561;SDS011;1795;52.074;4.754;2022-12-07T16:04:19;2.58;;;2.38;;
3561;SDS011;1795;52.074;4.754;2022-12-07T16:06:49;3.17;;;2.30;;
3561;SDS011;1795;52.074;4.754;2022-12-07T16:09:17;6.50;;;2.20;;
3561;SDS011;1795;52.074;4.754;2022-12-07T16:11:45;2.78;;;2.20;;
3561;SDS011;1795;52.074;4.754;2022-12-07T16:14:13;5.40;;;2.15;;
3561;SDS011;1795;52.074;4.754;2022-12-07T16:16:41;2.20;;;2.00;;
3561;SDS011;1795;52.074;4.754;2022-12-07T16:19:11;3.08;;;2.30;;